sensor_id;sensor_type;location;lat;lon;timestamp;pressure;altitude;pressure_sealevel;temperature;humidity
11985;BME280;6052;53.246;10.368;2023-04-19T00:00:15;102613.22;;;9.89;65.92
11985;BME280;6052;53.246;10.368;2023-04-19T00:02:45;102611.00;;;10.22;66.15
11985;BME280;6052;53.246;10.368;2023-04-19T00:05:15;102609.00;;;10.24;66.58
11985;BME280;6052;53.246;10.368;2023-04-19T00:07:48;102607.06;;;10.53;66.11
11985;BME280;6052;53.246;10.368;2023-04-19T00:10:18;102604.78;;;10.36;65.70
11985;BME280;6052;53.246;10.368;2023-04-19T00:12:47;102601.03;;;10.66;65.68
11985;BME280;6052;53.246;10.368;2023-04-19T00:15:16;102602.38;;;10.41;65.91
11985;BME280;6052;53.246;10.368;2023-04-19T00:17:46;102603.06;;;10.64;65.78
11985;BME280;6052;53.246;10.368;2023-04-19T00:20:15;102592.22;;;10.22;66.72
11985;BME280;6052;53.246;10.368;2023-04-19T00:22:48;102598.16;;;10.17;66.98
11985;BME280;6052;53.246;10.368;2023-04-19T00:25:17;102592.81;;;10.17;66.34
11985;BME280;6052;53.246;10.368;2023-04-19T00:27:46;102594.22;;;10.49;66.11
11985;BME280;6052;53.246;10.368;2023-04-19T00:30:16;102596.38;;;10.60;66.21
11985;BME280;6052;53.246;10.368;2023-04-19T00:32:45;102584.75;;;10.32;66.69
11985;BME280;6052;53.246;10.368;2023-04-19T00:35:15;102586.00;;;10.36;66.94
11985;BME280;6052;53.246;10.368;2023-04-19T00:37:44;102586.75;;;10.30;67.38
11985;BME280;6052;53.246;10.368;2023-04-19T00:40:16;102586.53;;;9.81;69.17
11985;BME280;6052;53.246;10.368;2023-04-19T00:42:45;102585.88;;;9.94;69.00
11985;BME280;6052;53.246;10.368;2023-04-19T00:45:15;102584.38;;;9.77;68.36
11985;BME280;6052;53.246;10.368;2023-04-19T00:47:44;102585.22;;;9.63;69.33
11985;BME280;6052;53.246;10.368;2023-04-19T00:50:14;102575.59;;;9.68;68.87
11985;BME280;6052;53.246;10.368;2023-04-19T00:52:43;102580.91;;;10.05;68.80
11985;BME280;6052;53.246;10.368;2023-04-19T00:55:17;102569.13;;;9.92;68.61
11985;BME280;6052;53.246;10.368;2023-04-19T00:57:46;102574.13;;;9.66;69.31
11985;BME280;6052;53.246;10.368;2023-04-19T01:00:18;102578.84;;;9.93;69.45
11985;BME280;6052;53.246;10.368;2023-04-19T01:02:47;102580.03;;;9.47;70.12
11985;BME280;6052;53.246;10.368;2023-04-19T01:05:17;102580.13;;;9.53;70.67
11985;BME280;6052;53.246;10.368;2023-04-19T01:07:46;102575.81;;;9.15;71.74
11985;BME280;6052;53.246;10.368;2023-04-19T01:10:19;102579.19;;;9.32;72.12
11985;BME280;6052;53.246;10.368;2023-04-19T01:12:48;102579.41;;;9.45;71.92
11985;BME280;6052;53.246;10.368;2023-04-19T01:15:18;102582.34;;;9.64;70.99
11985;BME280;6052;53.246;10.368;2023-04-19T01:17:47;102569.13;;;9.63;71.29
11985;BME280;6052;53.246;10.368;2023-04-19T01:20:17;102567.53;;;9.39;71.00
11985;BME280;6052;53.246;10.368;2023-04-19T01:22:49;102574.88;;;9.60;70.87
11985;BME280;6052;53.246;10.368;2023-04-19T01:25:18;102572.16;;;9.45;70.54
11985;BME280;6052;53.246;10.368;2023-04-19T01:27:48;102584.19;;;9.49;71.48
11985;BME280;6052;53.246;10.368;2023-04-19T01:30:17;102581.56;;;8.90;72.35
11985;BME280;6052;53.246;10.368;2023-04-19T01:32:47;102576.28;;;8.82;73.23
11985;BME280;6052;53.246;10.368;2023-04-19T01:35:16;102582.88;;;8.94;72.84
11985;BME280;6052;53.246;10.368;2023-04-19T01:37:49;102576.56;;;9.09;71.62
11985;BME280;6052;53.246;10.368;2023-04-19T01:40:22;102578.31;;;9.17;72.37
11985;BME280;6052;53.246;10.368;2023-04-19T01:42:52;102583.38;;;9.12;71.44
11985;BME280;6052;53.246;10.368;2023-04-19T01:45:21;102588.06;;;9.32;71.28
11985;BME280;6052;53.246;10.368;2023-04-19T01:47:51;102590.56;;;8.97;71.82
11985;BME280;6052;53.246;10.368;2023-04-19T01:50:21;102582.88;;;9.31;71.08
11985;BME280;6052;53.246;10.368;2023-04-19T01:52:53;102579.16;;;9.17;70.88
11985;BME280;6052;53.246;10.368;2023-04-19T01:55:22;102582.72;;;9.32;70.65
11985;BME280;6052;53.246;10.368;2023-04-19T01:57:52;102575.25;;;9.05;70.20
11985;BME280;6052;53.246;10.368;2023-04-19T02:00:21;102571.78;;;9.34;70.75
11985;BME280;6052;53.246;10.368;2023-04-19T02:02:51;102567.81;;;9.30;69.53
11985;BME280;6052;53.246;10.368;2023-04-19T02:05:20;102563.66;;;9.27;69.98
11985;BME280;6052;53.246;10.368;2023-04-19T02:07:52;102570.97;;;8.96;70.29
11985;BME280;6052;53.246;10.368;2023-04-19T02:10:22;102574.78;;;9.02;70.73
11985;BME280;6052;53.246;10.368;2023-04-19T02:12:51;102571.38;;;9.08;69.88
11985;BME280;6052;53.246;10.368;2023-04-19T02:15:21;102576.22;;;9.27;69.57
11985;BME280;6052;53.246;10.368;2023-04-19T02:17:50;102572.75;;;9.04;69.51
11985;BME280;6052;53.246;10.368;2023-04-19T02:20:23;102577.88;;;9.28;69.26
11985;BME280;6052;53.246;10.368;2023-04-19T02:22:54;102572.50;;;9.28;69.46
11985;BME280;6052;53.246;10.368;2023-04-19T02:25:24;102567.88;;;9.07;69.77
11985;BME280;6052;53.246;10.368;2023-04-19T02:27:53;102566.59;;;9.18;69.76
11985;BME280;6052;53.246;10.368;2023-04-19T02:30:23;102559.28;;;9.12;69.66
11985;BME280;6052;53.246;10.368;2023-04-19T02:32:52;102563.63;;;9.13;69.32
11985;BME280;6052;53.246;10.368;2023-04-19T02:35:24;102563.38;;;9.37;69.07
11985;BME280;6052;53.246;10.368;2023-04-19T02:37:56;102566.69;;;9.24;68.43
11985;BME280;6052;53.246;10.368;2023-04-19T02:40:25;102560.88;;;9.35;68.49
11985;BME280;6052;53.246;10.368;2023-04-19T02:42:55;102564.06;;;9.02;69.30
11985;BME280;6052;53.246;10.368;2023-04-19T02:45:24;102561.69;;;9.21;69.17
11985;BME280;6052;53.246;10.368;2023-04-19T02:47:54;102561.06;;;9.34;69.02
11985;BME280;6052;53.246;10.368;2023-04-19T02:50:26;102557.63;;;9.25;69.02
11985;BME280;6052;53.246;10.368;2023-04-19T02:52:59;102547.47;;;9.21;68.70
11985;BME280;6052;53.246;10.368;2023-04-19T02:55:29;102552.00;;;9.20;68.65
11985;BME280;6052;53.246;10.368;2023-04-19T02:57:58;102562.25;;;9.17;69.28
11985;BME280;6052;53.246;10.368;2023-04-19T03:00:28;102562.38;;;9.38;68.65
11985;BME280;6052;53.246;10.368;2023-04-19T03:02:58;102559.28;;;9.26;68.90
11985;BME280;6052;53.246;10.368;2023-04-19T03:05:29;102553.41;;;9.31;68.79
11985;BME280;6052;53.246;10.368;2023-04-19T03:08:01;102548.56;;;9.26;68.75
11985;BME280;6052;53.246;10.368;2023-04-19T03:10:31;102544.94;;;8.68;70.34
11985;BME280;6052;53.246;10.368;2023-04-19T03:13:00;102546.28;;;8.86;70.02
11985;BME280;6052;53.246;10.368;2023-04-19T03:15:29;102543.78;;;8.85;69.69
11985;BME280;6052;53.246;10.368;2023-04-19T03:17:59;102540.34;;;8.76;70.16
11985;BME280;6052;53.246;10.368;2023-04-19T03:20:28;102535.63;;;8.56;70.43
11985;BME280;6052;53.246;10.368;2023-04-19T03:23:00;102527.59;;;8.56;70.67
11985;BME280;6052;53.246;10.368;2023-04-19T03:25:30;102535.66;;;8.78;70.02
11985;BME280;6052;53.246;10.368;2023-04-19T03:28:00;102533.78;;;8.79;70.23
11985;BME280;6052;53.246;10.368;2023-04-19T03:30:29;102530.81;;;8.74;70.06
11985;BME280;6052;53.246;10.368;2023-04-19T03:32:58;102530.31;;;8.78;69.86
11985;BME280;6052;53.246;10.368;2023-04-19T03:35:28;102534.38;;;8.89;69.45
11985;BME280;6052;53.246;10.368;2023-04-19T03:37:58;102523.06;;;8.42;70.19
11985;BME280;6052;53.246;10.368;2023-04-19T03:40:31;102529.00;;;8.52;71.24
11985;BME280;6052;53.246;10.368;2023-04-19T03:43:00;102524.09;;;8.78;70.27
11985;BME280;6052;53.246;10.368;2023-04-19T03:45:30;102520.66;;;8.69;70.31
11985;BME280;6052;53.246;10.368;2023-04-19T03:47:59;102522.19;;;8.86;69.89
11985;BME280;6052;53.246;10.368;2023-04-19T03:50:29;102520.13;;;8.74;70.36
11985;BME280;6052;53.246;10.368;2023-04-19T03:52:58;102515.34;;;8.84;69.77
11985;BME280;6052;53.246;10.368;2023-04-19T03:55:30;102521.59;;;8.76;70.08
11985;BME280;6052;53.246;10.368;2023-04-19T03:57:59;102514.94;;;8.72;70.17
11985;BME280;6052;53.246;10.368;2023-04-19T04:00:29;102511.84;;;8.83;70.01
11985;BME280;6052;53.246;10.368;2023-04-19T04:02:58;102510.13;;;8.68;70.33
11985;BME280;6052;53.246;10.368;2023-04-19T04:05:28;102515.78;;;8.73;70.44
11985;BME280;6052;53.246;10.368;2023-04-19T04:07:58;102508.78;;;8.49;70.98
11985;BME280;6052;53.246;10.368;2023-04-19T04:10:30;102503.53;;;8.56;71.02
11985;BME280;6052;53.246;10.368;2023-04-19T04:12:59;102511.75;;;8.54;71.75
11985;BME280;6052;53.246;10.368;2023-04-19T04:15:28;102504.72;;;8.53;71.91
11985;BME280;6052;53.246;10.368;2023-04-19T04:17:58;102512.22;;;8.35;72.29
11985;BME280;6052;53.246;10.368;2023-04-19T04:20:27;102510.56;;;8.04;73.25
11985;BME280;6052;53.246;10.368;2023-04-19T04:22:57;102501.56;;;8.27;73.43
11985;BME280;6052;53.246;10.368;2023-04-19T04:25:26;102508.38;;;8.38;73.58
11985;BME280;6052;53.246;10.368;2023-04-19T04:28:01;102509.47;;;7.90;75.46
11985;BME280;6052;53.246;10.368;2023-04-19T04:30:30;102510.56;;;8.04;76.02
11985;BME280;6052;53.246;10.368;2023-04-19T04:33:00;102507.25;;;8.24;75.30
11985;BME280;6052;53.246;10.368;2023-04-19T04:35:30;102506.56;;;8.00;76.54
11985;BME280;6052;53.246;10.368;2023-04-19T04:38:02;102502.38;;;8.05;76.94
11985;BME280;6052;53.246;10.368;2023-04-19T04:40:48;102506.88;;;8.35;75.92
11985;BME280;6052;53.246;10.368;2023-04-19T04:43:23;102504.16;;;8.13;76.40
11985;BME280;6052;53.246;10.368;2023-04-19T04:45:55;102502.00;;;8.39;75.87
11985;BME280;6052;53.246;10.368;2023-04-19T04:48:25;102492.94;;;8.40;75.87
11985;BME280;6052;53.246;10.368;2023-04-19T04:50:54;102501.56;;;8.27;76.96
11985;BME280;6052;53.246;10.368;2023-04-19T04:53:24;102504.66;;;8.39;76.28
11985;BME280;6052;53.246;10.368;2023-04-19T04:55:54;102499.25;;;8.24;77.35
11985;BME280;6052;53.246;10.368;2023-04-19T04:58:26;102508.66;;;8.20;78.36
11985;BME280;6052;53.246;10.368;2023-04-19T05:00:55;102503.94;;;8.14;78.49
11985;BME280;6052;53.246;10.368;2023-04-19T05:03:25;102502.81;;;7.78;80.46
11985;BME280;6052;53.246;10.368;2023-04-19T05:05:55;102504.13;;;7.90;80.01
11985;BME280;6052;53.246;10.368;2023-04-19T05:08:25;102502.69;;;8.02;80.02
11985;BME280;6052;53.246;10.368;2023-04-19T05:10:55;102513.94;;;8.28;78.94
11985;BME280;6052;53.246;10.368;2023-04-19T05:13:27;102511.50;;;8.11;79.44
11985;BME280;6052;53.246;10.368;2023-04-19T05:15:56;102498.94;;;7.89;80.94
11985;BME280;6052;53.246;10.368;2023-04-19T05:18:26;102509.19;;;8.08;81.71
11985;BME280;6052;53.246;10.368;2023-04-19T05:20:55;102513.13;;;8.20;80.42
11985;BME280;6052;53.246;10.368;2023-04-19T05:23:25;102513.47;;;8.25;80.17
11985;BME280;6052;53.246;10.368;2023-04-19T05:25:54;102513.47;;;8.17;80.86
11985;BME280;6052;53.246;10.368;2023-04-19T05:28:26;102503.41;;;8.27;80.88
11985;BME280;6052;53.246;10.368;2023-04-19T05:30:56;102507.31;;;8.16;81.49
11985;BME280;6052;53.246;10.368;2023-04-19T05:33:25;102501.09;;;8.16;80.56
11985;BME280;6052;53.246;10.368;2023-04-19T05:35:55;102502.34;;;8.36;80.74
11985;BME280;6052;53.246;10.368;2023-04-19T05:38:24;102507.47;;;8.23;81.69
11985;BME280;6052;53.246;10.368;2023-04-19T05:40:54;102501.78;;;8.18;82.15
11985;BME280;6052;53.246;10.368;2023-04-19T05:43:23;102504.72;;;8.53;80.90
11985;BME280;6052;53.246;10.368;2023-04-19T05:45:55;102493.88;;;8.24;82.19
11985;BME280;6052;53.246;10.368;2023-04-19T05:48:25;102497.88;;;8.28;82.62
11985;BME280;6052;53.246;10.368;2023-04-19T05:50:54;102502.13;;;8.45;81.98
11985;BME280;6052;53.246;10.368;2023-04-19T05:53:25;102498.38;;;8.32;83.68
11985;BME280;6052;53.246;10.368;2023-04-19T05:55:54;102493.53;;;8.27;83.22
11985;BME280;6052;53.246;10.368;2023-04-19T05:58:24;102499.28;;;8.47;82.51
11985;BME280;6052;53.246;10.368;2023-04-19T06:00:56;102488.31;;;8.56;82.13
11985;BME280;6052;53.246;10.368;2023-04-19T06:03:26;102486.13;;;8.37;83.11
11985;BME280;6052;53.246;10.368;2023-04-19T06:05:58;102482.97;;;8.34;83.88
11985;BME280;6052;53.246;10.368;2023-04-19T06:08:27;102475.38;;;8.23;84.21
11985;BME280;6052;53.246;10.368;2023-04-19T06:10:58;102489.50;;;8.31;83.68
11985;BME280;6052;53.246;10.368;2023-04-19T06:13:45;102484.50;;;8.28;83.18
11985;BME280;6052;53.246;10.368;2023-04-19T06:16:19;102486.19;;;8.52;81.85
11985;BME280;6052;53.246;10.368;2023-04-19T06:18:48;102488.38;;;8.48;81.99
11985;BME280;6052;53.246;10.368;2023-04-19T06:21:18;102492.53;;;8.51;82.06
11985;BME280;6052;53.246;10.368;2023-04-19T06:23:47;102493.53;;;8.72;81.63
11985;BME280;6052;53.246;10.368;2023-04-19T06:26:16;102484.38;;;8.67;81.45
11985;BME280;6052;53.246;10.368;2023-04-19T06:28:51;102479.25;;;8.57;80.98
11985;BME280;6052;53.246;10.368;2023-04-19T06:31:23;102484.63;;;8.57;80.75
11985;BME280;6052;53.246;10.368;2023-04-19T06:33:52;102477.25;;;8.59;80.60
11985;BME280;6052;53.246;10.368;2023-04-19T06:36:21;102476.81;;;8.70;79.39
11985;BME280;6052;53.246;10.368;2023-04-19T06:38:51;102483.00;;;8.71;79.28
11985;BME280;6052;53.246;10.368;2023-04-19T06:41:20;102466.75;;;8.72;79.21
11985;BME280;6052;53.246;10.368;2023-04-19T06:43:50;102472.88;;;8.81;79.38
11985;BME280;6052;53.246;10.368;2023-04-19T06:46:19;102471.69;;;8.83;78.89
11985;BME280;6052;53.246;10.368;2023-04-19T06:48:51;102457.81;;;8.80;78.86
11985;BME280;6052;53.246;10.368;2023-04-19T06:51:21;102462.91;;;8.89;78.38
11985;BME280;6052;53.246;10.368;2023-04-19T06:53:50;102455.34;;;8.93;78.14
11985;BME280;6052;53.246;10.368;2023-04-19T06:56:38;102457.09;;;9.00;77.98
11985;BME280;6052;53.246;10.368;2023-04-19T06:59:07;102456.00;;;9.09;77.93
11985;BME280;6052;53.246;10.368;2023-04-19T07:01:37;102459.03;;;9.06;76.93
11985;BME280;6052;53.246;10.368;2023-04-19T07:04:09;102448.44;;;9.27;77.22
11985;BME280;6052;53.246;10.368;2023-04-19T07:06:39;102460.06;;;9.34;77.01
11985;BME280;6052;53.246;10.368;2023-04-19T07:09:08;102456.81;;;9.39;77.46
11985;BME280;6052;53.246;10.368;2023-04-19T07:11:37;102452.50;;;9.38;76.27
11985;BME280;6052;53.246;10.368;2023-04-19T07:14:07;102445.78;;;9.63;77.36
11985;BME280;6052;53.246;10.368;2023-04-19T07:16:37;102446.06;;;9.68;76.05
11985;BME280;6052;53.246;10.368;2023-04-19T07:19:09;102438.69;;;9.55;75.00
11985;BME280;6052;53.246;10.368;2023-04-19T07:21:38;102451.03;;;9.85;75.28
11985;BME280;6052;53.246;10.368;2023-04-19T07:24:07;102445.59;;;9.79;74.97
11985;BME280;6052;53.246;10.368;2023-04-19T07:26:37;102439.84;;;9.82;73.90
11985;BME280;6052;53.246;10.368;2023-04-19T07:29:07;102439.91;;;9.88;72.71
11985;BME280;6052;53.246;10.368;2023-04-19T07:31:37;102439.88;;;10.03;71.59
11985;BME280;6052;53.246;10.368;2023-04-19T07:34:10;102433.00;;;10.15;71.92
11985;BME280;6052;53.246;10.368;2023-04-19T07:36:39;102436.22;;;10.25;71.41
11985;BME280;6052;53.246;10.368;2023-04-19T07:39:09;102429.56;;;10.42;70.50
11985;BME280;6052;53.246;10.368;2023-04-19T07:41:38;102419.88;;;10.47;68.77
11985;BME280;6052;53.246;10.368;2023-04-19T07:44:08;102423.50;;;10.61;68.84
11985;BME280;6052;53.246;10.368;2023-04-19T07:46:41;102421.81;;;10.81;67.95
11985;BME280;6052;53.246;10.368;2023-04-19T07:49:14;102418.34;;;10.87;68.04
11985;BME280;6052;53.246;10.368;2023-04-19T07:51:43;102430.59;;;10.96;67.37
11985;BME280;6052;53.246;10.368;2023-04-19T07:54:12;102412.09;;;11.07;67.04
11985;BME280;6052;53.246;10.368;2023-04-19T07:56:43;102387.19;;;10.99;64.50
11985;BME280;6052;53.246;10.368;2023-04-19T07:59:13;102413.97;;;11.54;64.44
11985;BME280;6052;53.246;10.368;2023-04-19T08:01:42;102411.69;;;11.57;63.18
11985;BME280;6052;53.246;10.368;2023-04-19T08:04:14;102406.78;;;11.61;62.46
11985;BME280;6052;53.246;10.368;2023-04-19T08:06:46;102399.66;;;11.47;62.18
11985;BME280;6052;53.246;10.368;2023-04-19T08:09:16;102410.50;;;11.60;61.23
11985;BME280;6052;53.246;10.368;2023-04-19T08:11:45;102404.75;;;11.76;62.79
11985;BME280;6052;53.246;10.368;2023-04-19T08:14:15;102403.53;;;11.85;61.20
11985;BME280;6052;53.246;10.368;2023-04-19T08:17:00;102409.53;;;11.93;59.62
11985;BME280;6052;53.246;10.368;2023-04-19T08:19:35;102411.06;;;12.15;58.63
11985;BME280;6052;53.246;10.368;2023-04-19T08:22:05;102409.59;;;12.26;58.68
11985;BME280;6052;53.246;10.368;2023-04-19T08:24:34;102402.97;;;12.35;60.20
11985;BME280;6052;53.246;10.368;2023-04-19T08:27:03;102405.47;;;12.56;59.03
11985;BME280;6052;53.246;10.368;2023-04-19T08:29:33;102388.03;;;12.58;58.18
11985;BME280;6052;53.246;10.368;2023-04-19T08:32:03;102403.81;;;12.61;58.19
11985;BME280;6052;53.246;10.368;2023-04-19T08:34:36;102403.59;;;12.56;56.83
11985;BME280;6052;53.246;10.368;2023-04-19T08:37:06;102390.13;;;12.76;56.60
11985;BME280;6052;53.246;10.368;2023-04-19T08:39:35;102387.38;;;12.89;57.53
11985;BME280;6052;53.246;10.368;2023-04-19T08:42:06;102371.28;;;12.76;56.13
11985;BME280;6052;53.246;10.368;2023-04-19T08:44:59;102375.81;;;12.62;54.02
11985;BME280;6052;53.246;10.368;2023-04-19T08:47:51;102383.50;;;12.72;54.89
11985;BME280;6052;53.246;10.368;2023-04-19T08:50:29;102384.63;;;13.21;55.50
11985;BME280;6052;53.246;10.368;2023-04-19T08:53:18;102368.31;;;13.03;54.35
11985;BME280;6052;53.246;10.368;2023-04-19T08:55:51;102373.91;;;12.95;54.79
11985;BME280;6052;53.246;10.368;2023-04-19T08:58:44;102377.16;;;13.30;54.09
11985;BME280;6052;53.246;10.368;2023-04-19T09:01:16;102374.75;;;12.83;53.00
11985;BME280;6052;53.246;10.368;2023-04-19T09:03:59;102364.59;;;13.04;53.25
11985;BME280;6052;53.246;10.368;2023-04-19T09:06:49;102366.88;;;12.88;53.03
11985;BME280;6052;53.246;10.368;2023-04-19T09:09:20;102373.91;;;13.15;53.10
11985;BME280;6052;53.246;10.368;2023-04-19T09:12:14;102375.19;;;13.50;53.19
11985;BME280;6052;53.246;10.368;2023-04-19T09:14:45;102354.88;;;13.47;52.50
11985;BME280;6052;53.246;10.368;2023-04-19T09:17:27;102359.28;;;13.35;51.09
11985;BME280;6052;53.246;10.368;2023-04-19T09:19:58;102352.41;;;13.77;51.83
11985;BME280;6052;53.246;10.368;2023-04-19T09:22:32;102354.25;;;13.45;50.74
11985;BME280;6052;53.246;10.368;2023-04-19T09:25:02;102347.03;;;13.70;53.66
11985;BME280;6052;53.246;10.368;2023-04-19T09:27:35;102351.44;;;13.96;53.27
11985;BME280;6052;53.246;10.368;2023-04-19T09:30:06;102333.50;;;14.08;52.42
11985;BME280;6052;53.246;10.368;2023-04-19T09:32:49;102328.41;;;13.69;50.25
11985;BME280;6052;53.246;10.368;2023-04-19T09:35:19;102339.09;;;13.82;50.09
11985;BME280;6052;53.246;10.368;2023-04-19T09:38:00;102312.97;;;13.76;49.54
11985;BME280;6052;53.246;10.368;2023-04-19T09:40:32;102334.53;;;13.51;49.25
11985;BME280;6052;53.246;10.368;2023-04-19T09:43:02;102338.50;;;13.80;48.00
11985;BME280;6052;53.246;10.368;2023-04-19T09:45:51;102322.53;;;13.72;47.63
11985;BME280;6052;53.246;10.368;2023-04-19T09:48:21;102327.03;;;13.84;47.96
11985;BME280;6052;53.246;10.368;2023-04-19T09:50:52;102315.31;;;13.66;47.09
11985;BME280;6052;53.246;10.368;2023-04-19T09:53:32;102313.81;;;14.01;48.40
11985;BME280;6052;53.246;10.368;2023-04-19T09:56:02;102305.56;;;13.96;48.36
11985;BME280;6052;53.246;10.368;2023-04-19T09:58:32;102302.13;;;13.82;47.66
11985;BME280;6052;53.246;10.368;2023-04-19T10:01:14;102299.91;;;14.04;47.65
11985;BME280;6052;53.246;10.368;2023-04-19T10:03:47;102292.25;;;14.25;48.08
11985;BME280;6052;53.246;10.368;2023-04-19T10:06:19;102298.56;;;14.13;48.10
11985;BME280;6052;53.246;10.368;2023-04-19T10:08:54;102295.22;;;14.42;47.71
11985;BME280;6052;53.246;10.368;2023-04-19T10:11:25;102295.84;;;14.62;48.69
11985;BME280;6052;53.246;10.368;2023-04-19T10:13:59;102287.16;;;14.11;48.29
11985;BME280;6052;53.246;10.368;2023-04-19T10:16:29;102274.16;;;14.01;48.58
11985;BME280;6052;53.246;10.368;2023-04-19T10:19:00;102280.03;;;14.41;48.04
11985;BME280;6052;53.246;10.368;2023-04-19T10:21:30;102272.63;;;14.36;48.44
11985;BME280;6052;53.246;10.368;2023-04-19T10:24:03;102275.41;;;14.48;46.61
11985;BME280;6052;53.246;10.368;2023-04-19T10:29:53;102267.59;;;14.40;46.53
11985;BME280;6052;53.246;10.368;2023-04-19T10:32:22;102277.78;;;14.56;47.62
11985;BME280;6052;53.246;10.368;2023-04-19T10:34:52;102243.84;;;14.24;46.57
11985;BME280;6052;53.246;10.368;2023-04-19T10:37:24;102257.31;;;14.30;46.34
11985;BME280;6052;53.246;10.368;2023-04-19T10:39:56;102242.66;;;14.13;45.75
11985;BME280;6052;53.246;10.368;2023-04-19T10:45:37;102235.78;;;14.17;45.24
11985;BME280;6052;53.246;10.368;2023-04-19T10:48:33;102242.56;;;14.02;45.48
11985;BME280;6052;53.246;10.368;2023-04-19T10:51:09;102235.31;;;14.02;44.99
11985;BME280;6052;53.246;10.368;2023-04-19T10:53:56;102240.00;;;13.89;45.01
11985;BME280;6052;53.246;10.368;2023-04-19T10:56:59;102237.03;;;14.21;44.53
11985;BME280;6052;53.246;10.368;2023-04-19T10:59:30;102243.31;;;14.33;45.41
11985;BME280;6052;53.246;10.368;2023-04-19T11:02:01;102238.03;;;14.27;45.91
11985;BME280;6052;53.246;10.368;2023-04-19T11:04:58;102232.34;;;14.10;44.77
11985;BME280;6052;53.246;10.368;2023-04-19T11:07:40;102230.00;;;14.14;44.76
11985;BME280;6052;53.246;10.368;2023-04-19T11:10:10;102213.22;;;13.87;44.15
11985;BME280;6052;53.246;10.368;2023-04-19T11:12:45;102219.34;;;14.19;43.80
11985;BME280;6052;53.246;10.368;2023-04-19T11:15:14;102203.16;;;14.19;44.62
11985;BME280;6052;53.246;10.368;2023-04-19T11:17:44;102196.50;;;14.21;44.62
11985;BME280;6052;53.246;10.368;2023-04-19T11:20:34;102211.69;;;14.40;44.67
11985;BME280;6052;53.246;10.368;2023-04-19T11:23:14;102203.34;;;14.24;45.18
11985;BME280;6052;53.246;10.368;2023-04-19T11:25:45;102195.50;;;14.16;44.59
11985;BME280;6052;53.246;10.368;2023-04-19T11:28:17;102191.31;;;14.20;45.29
11985;BME280;6052;53.246;10.368;2023-04-19T11:30:47;102191.63;;;14.48;45.12
11985;BME280;6052;53.246;10.368;2023-04-19T11:33:18;102207.41;;;14.33;46.22
11985;BME280;6052;53.246;10.368;2023-04-19T11:35:51;102193.44;;;14.36;45.56
11985;BME280;6052;53.246;10.368;2023-04-19T11:38:20;102194.28;;;14.54;45.66
11985;BME280;6052;53.246;10.368;2023-04-19T11:40:57;102190.34;;;14.32;45.57
11985;BME280;6052;53.246;10.368;2023-04-19T11:43:35;102198.19;;;14.58;46.06
11985;BME280;6052;53.246;10.368;2023-04-19T11:46:05;102189.31;;;14.51;45.96
11985;BME280;6052;53.246;10.368;2023-04-19T11:48:35;102193.50;;;14.47;45.75
11985;BME280;6052;53.246;10.368;2023-04-19T11:51:05;102187.88;;;14.67;46.97
11985;BME280;6052;53.246;10.368;2023-04-19T11:53:34;102172.81;;;14.41;46.34
11985;BME280;6052;53.246;10.368;2023-04-19T11:56:05;102183.97;;;14.63;47.21
11985;BME280;6052;53.246;10.368;2023-04-19T11:58:40;102187.66;;;14.68;47.22
11985;BME280;6052;53.246;10.368;2023-04-19T12:01:11;102171.38;;;14.57;47.96
11985;BME280;6052;53.246;10.368;2023-04-19T12:03:44;102171.00;;;14.35;47.18
11985;BME280;6052;53.246;10.368;2023-04-19T12:06:17;102180.69;;;14.61;47.29
11985;BME280;6052;53.246;10.368;2023-04-19T12:08:48;102179.34;;;14.52;47.15
11985;BME280;6052;53.246;10.368;2023-04-19T12:11:19;102166.47;;;14.65;47.80
11985;BME280;6052;53.246;10.368;2023-04-19T12:14:10;102179.28;;;14.70;47.05
11985;BME280;6052;53.246;10.368;2023-04-19T12:16:40;102169.81;;;14.49;47.63
11985;BME280;6052;53.246;10.368;2023-04-19T12:19:11;102168.75;;;14.32;47.24
11985;BME280;6052;53.246;10.368;2023-04-19T12:21:42;102162.97;;;14.47;47.79
11985;BME280;6052;53.246;10.368;2023-04-19T12:24:14;102161.22;;;14.52;47.43
11985;BME280;6052;53.246;10.368;2023-04-19T12:26:52;102152.16;;;14.47;47.72
11985;BME280;6052;53.246;10.368;2023-04-19T12:29:25;102164.16;;;14.51;47.79
11985;BME280;6052;53.246;10.368;2023-04-19T12:31:55;102159.28;;;14.41;47.00
11985;BME280;6052;53.246;10.368;2023-04-19T12:34:24;102132.47;;;14.58;48.02
11985;BME280;6052;53.246;10.368;2023-04-19T12:36:53;102152.97;;;14.47;47.44
11985;BME280;6052;53.246;10.368;2023-04-19T12:39:23;102147.47;;;14.24;47.98
11985;BME280;6052;53.246;10.368;2023-04-19T12:41:54;102164.78;;;14.35;47.24
11985;BME280;6052;53.246;10.368;2023-04-19T12:44:26;102160.19;;;14.35;47.11
11985;BME280;6052;53.246;10.368;2023-04-19T12:46:55;102155.84;;;14.34;47.19
11985;BME280;6052;53.246;10.368;2023-04-19T12:49:25;102144.22;;;14.52;47.92
11985;BME280;6052;53.246;10.368;2023-04-19T12:51:54;102137.59;;;14.48;48.60
11985;BME280;6052;53.246;10.368;2023-04-19T12:54:24;102138.09;;;14.56;47.97
11985;BME280;6052;53.246;10.368;2023-04-19T12:56:53;102134.47;;;14.33;47.40
11985;BME280;6052;53.246;10.368;2023-04-19T12:59:25;102126.72;;;14.36;47.58
11985;BME280;6052;53.246;10.368;2023-04-19T13:01:55;102135.41;;;14.38;46.93
11985;BME280;6052;53.246;10.368;2023-04-19T13:04:24;102134.06;;;14.47;47.43
11985;BME280;6052;53.246;10.368;2023-04-19T13:06:54;102129.22;;;14.38;47.31
11985;BME280;6052;53.246;10.368;2023-04-19T13:09:23;102127.56;;;14.37;47.65
11985;BME280;6052;53.246;10.368;2023-04-19T13:11:53;102128.50;;;14.42;48.08
11985;BME280;6052;53.246;10.368;2023-04-19T13:14:26;102122.13;;;14.55;48.99
11985;BME280;6052;53.246;10.368;2023-04-19T13:16:55;102118.97;;;14.40;48.34
11985;BME280;6052;53.246;10.368;2023-04-19T13:19:25;102117.91;;;14.29;48.53
11985;BME280;6052;53.246;10.368;2023-04-19T13:21:55;102113.38;;;14.41;48.56
11985;BME280;6052;53.246;10.368;2023-04-19T13:24:24;102106.31;;;14.40;48.68